sensor_id;sensor_type;location;lat;lon;timestamp;P1;P2;P0
80639;PMS5003;69992;60.170;24.692;2024-01-06T00:02:13;6;6;
80639;PMS5003;69992;60.170;24.692;2024-01-06T00:04:39;7;7;
80639;PMS5003;69992;60.170;24.692;2024-01-06T00:07:04;6;4;
80639;PMS5003;69992;60.170;24.692;2024-01-06T00:09:30;7;6;
80639;PMS5003;69992;60.170;24.692;2024-01-06T00:11:55;16;9;
80639;PMS5003;69992;60.170;24.692;2024-01-06T00:14:20;6;4;
80639;PMS5003;69992;60.170;24.692;2024-01-06T00:16:46;7;6;
80639;PMS5003;69992;60.170;24.692;2024-01-06T00:19:11;7;7;
80639;PMS5003;69992;60.170;24.692;2024-01-06T00:21:36;9;9;
80639;PMS5003;69992;60.170;24.692;2024-01-06T00:24:02;9;9;
80639;PMS5003;69992;60.170;24.692;2024-01-06T00:26:31;6;6;
80639;PMS5003;69992;60.170;24.692;2024-01-06T00:28:53;7;7;
80639;PMS5003;69992;60.170;24.692;2024-01-06T00:31:18;6;4;
80639;PMS5003;69992;60.170;24.692;2024-01-06T00:33:44;3;3;
80639;PMS5003;69992;60.170;24.692;2024-01-06T00:36:09;6;6;
80639;PMS5003;69992;60.170;24.692;2024-01-06T00:38:35;6;4;
80639;PMS5003;69992;60.170;24.692;2024-01-06T00:41:00;12;10;
80639;PMS5003;69992;60.170;24.692;2024-01-06T00:43:25;7;7;
80639;PMS5003;69992;60.170;24.692;2024-01-06T00:45:51;6;4;
80639;PMS5003;69992;60.170;24.692;2024-01-06T00:48:16;6;4;
80639;PMS5003;69992;60.170;24.692;2024-01-06T00:50:42;3;3;
80639;PMS5003;69992;60.170;24.692;2024-01-06T00:53:07;7;7;
80639;PMS5003;69992;60.170;24.692;2024-01-06T00:55:33;6;6;
80639;PMS5003;69992;60.170;24.692;2024-01-06T00:57:58;4;4;
80639;PMS5003;69992;60.170;24.692;2024-01-06T01:00:23;7;4;
80639;PMS5003;69992;60.170;24.692;2024-01-06T01:02:49;6;4;
80639;PMS5003;69992;60.170;24.692;2024-01-06T01:05:14;6;6;
80639;PMS5003;69992;60.170;24.692;2024-01-06T01:07:40;6;4;
80639;PMS5003;69992;60.170;24.692;2024-01-06T01:10:05;6;6;
80639;PMS5003;69992;60.170;24.692;2024-01-06T01:12:31;7;6;
80639;PMS5003;69992;60.170;24.692;2024-01-06T01:14:56;4;4;
80639;PMS5003;69992;60.170;24.692;2024-01-06T01:17:21;7;6;
80639;PMS5003;69992;60.170;24.692;2024-01-06T01:19:47;7;6;
80639;PMS5003;69992;60.170;24.692;2024-01-06T01:22:12;7;6;
80639;PMS5003;69992;60.170;24.692;2024-01-06T01:24:38;6;6;
80639;PMS5003;69992;60.170;24.692;2024-01-06T01:27:04;6;4;
80639;PMS5003;69992;60.170;24.692;2024-01-06T01:29:29;6;4;
80639;PMS5003;69992;60.170;24.692;2024-01-06T01:31:54;7;6;
80639;PMS5003;69992;60.170;24.692;2024-01-06T01:34:20;7;7;
80639;PMS5003;69992;60.170;24.692;2024-01-06T01:36:45;6;6;
80639;PMS5003;69992;60.170;24.692;2024-01-06T01:39:10;6;4;
80639;PMS5003;69992;60.170;24.692;2024-01-06T01:41:36;6;4;
80639;PMS5003;69992;60.170;24.692;2024-01-06T01:44:01;4;4;
80639;PMS5003;69992;60.170;24.692;2024-01-06T01:46:27;4;4;
80639;PMS5003;69992;60.170;24.692;2024-01-06T01:48:52;6;4;
80639;PMS5003;69992;60.170;24.692;2024-01-06T01:51:21;4;3;
80639;PMS5003;69992;60.170;24.692;2024-01-06T01:53:43;6;4;
80639;PMS5003;69992;60.170;24.692;2024-01-06T01:56:08;6;6;
80639;PMS5003;69992;60.170;24.692;2024-01-06T01:58:34;9;6;
80639;PMS5003;69992;60.170;24.692;2024-01-06T02:00:59;6;4;
80639;PMS5003;69992;60.170;24.692;2024-01-06T02:03:25;7;6;
80639;PMS5003;69992;60.170;24.692;2024-01-06T02:05:50;6;4;
80639;PMS5003;69992;60.170;24.692;2024-01-06T02:08:15;3;3;
80639;PMS5003;69992;60.170;24.692;2024-01-06T02:10:41;6;6;
80639;PMS5003;69992;60.170;24.692;2024-01-06T02:13:09;6;4;
80639;PMS5003;69992;60.170;24.692;2024-01-06T02:15:32;6;4;
80639;PMS5003;69992;60.170;24.692;2024-01-06T02:17:57;6;3;
80639;PMS5003;69992;60.170;24.692;2024-01-06T02:20:22;6;4;
80639;PMS5003;69992;60.170;24.692;2024-01-06T02:22:48;7;6;
80639;PMS5003;69992;60.170;24.692;2024-01-06T02:25:13;10;7;
80639;PMS5003;69992;60.170;24.692;2024-01-06T02:27:39;6;4;
80639;PMS5003;69992;60.170;24.692;2024-01-06T02:30:05;7;6;
80639;PMS5003;69992;60.170;24.692;2024-01-06T02:32:30;4;4;
80639;PMS5003;69992;60.170;24.692;2024-01-06T02:34:55;4;4;
80639;PMS5003;69992;60.170;24.692;2024-01-06T02:37:21;6;6;
80639;PMS5003;69992;60.170;24.692;2024-01-06T02:39:46;4;4;
80639;PMS5003;69992;60.170;24.692;2024-01-06T02:42:11;7;4;
80639;PMS5003;69992;60.170;24.692;2024-01-06T02:44:37;4;4;
80639;PMS5003;69992;60.170;24.692;2024-01-06T02:47:02;4;4;
80639;PMS5003;69992;60.170;24.692;2024-01-06T02:49:27;4;4;
80639;PMS5003;69992;60.170;24.692;2024-01-06T02:51:53;9;9;
80639;PMS5003;69992;60.170;24.692;2024-01-06T02:54:18;7;4;
80639;PMS5003;69992;60.170;24.692;2024-01-06T02:56:44;7;6;
80639;PMS5003;69992;60.170;24.692;2024-01-06T02:59:09;3;3;
80639;PMS5003;69992;60.170;24.692;2024-01-06T03:01:34;7;4;
80639;PMS5003;69992;60.170;24.692;2024-01-06T03:04:00;4;4;
80639;PMS5003;69992;60.170;24.692;2024-01-06T03:06:25;4;3;
80639;PMS5003;69992;60.170;24.692;2024-01-06T03:08:51;3;3;
80639;PMS5003;69992;60.170;24.692;2024-01-06T03:11:16;6;4;
80639;PMS5003;69992;60.170;24.692;2024-01-06T03:13:41;4;4;
80639;PMS5003;69992;60.170;24.692;2024-01-06T03:16:07;7;6;
80639;PMS5003;69992;60.170;24.692;2024-01-06T03:18:32;4;3;
80639;PMS5003;69992;60.170;24.692;2024-01-06T03:20:58;4;4;
80639;PMS5003;69992;60.170;24.692;2024-01-06T03:23:23;4;4;
80639;PMS5003;69992;60.170;24.692;2024-01-06T03:25:49;7;6;
80639;PMS5003;69992;60.170;24.692;2024-01-06T03:28:14;7;6;
80639;PMS5003;69992;60.170;24.692;2024-01-06T03:30:39;4;3;
80639;PMS5003;69992;60.170;24.692;2024-01-06T03:33:05;9;4;
80639;PMS5003;69992;60.170;24.692;2024-01-06T03:35:30;4;3;
80639;PMS5003;69992;60.170;24.692;2024-01-06T03:37:56;4;4;
80639;PMS5003;69992;60.170;24.692;2024-01-06T03:40:24;6;4;
80639;PMS5003;69992;60.170;24.692;2024-01-06T03:42:47;12;9;
80639;PMS5003;69992;60.170;24.692;2024-01-06T03:45:12;13;10;
80639;PMS5003;69992;60.170;24.692;2024-01-06T03:47:37;13;12;
80639;PMS5003;69992;60.170;24.692;2024-01-06T03:50:04;12;12;
80639;PMS5003;69992;60.170;24.692;2024-01-06T03:52:28;27;27;
80639;PMS5003;69992;60.170;24.692;2024-01-06T03:54:54;33;28;
80639;PMS5003;69992;60.170;24.692;2024-01-06T03:57:20;19;18;
80639;PMS5003;69992;60.170;24.692;2024-01-06T03:59:45;19;18;
80639;PMS5003;69992;60.170;24.692;2024-01-06T04:02:10;19;16;
80639;PMS5003;69992;60.170;24.692;2024-01-06T04:04:36;15;15;
80639;PMS5003;69992;60.170;24.692;2024-01-06T04:07:01;15;13;
80639;PMS5003;69992;60.170;24.692;2024-01-06T04:09:27;15;15;
80639;PMS5003;69992;60.170;24.692;2024-01-06T04:11:52;16;15;
80639;PMS5003;69992;60.170;24.692;2024-01-06T04:14:18;15;15;
80639;PMS5003;69992;60.170;24.692;2024-01-06T04:16:43;18;15;
80639;PMS5003;69992;60.170;24.692;2024-01-06T04:19:09;19;18;
80639;PMS5003;69992;60.170;24.692;2024-01-06T04:21:34;16;16;
80639;PMS5003;69992;60.170;24.692;2024-01-06T04:24:00;18;16;
80639;PMS5003;69992;60.170;24.692;2024-01-06T04:26:25;18;16;
80639;PMS5003;69992;60.170;24.692;2024-01-06T04:28:51;13;13;
80639;PMS5003;69992;60.170;24.692;2024-01-06T04:31:16;18;15;
80639;PMS5003;69992;60.170;24.692;2024-01-06T04:33:41;16;16;
80639;PMS5003;69992;60.170;24.692;2024-01-06T04:36:07;15;15;
80639;PMS5003;69992;60.170;24.692;2024-01-06T04:38:32;19;19;
80639;PMS5003;69992;60.170;24.692;2024-01-06T04:40:58;21;21;
80639;PMS5003;69992;60.170;24.692;2024-01-06T04:43:24;21;21;
80639;PMS5003;69992;60.170;24.692;2024-01-06T04:45:49;21;21;
80639;PMS5003;69992;60.170;24.692;2024-01-06T04:48:14;18;18;
80639;PMS5003;69992;60.170;24.692;2024-01-06T04:50:40;22;19;
80639;PMS5003;69992;60.170;24.692;2024-01-06T04:53:09;18;15;
80639;PMS5003;69992;60.170;24.692;2024-01-06T04:55:31;16;15;
80639;PMS5003;69992;60.170;24.692;2024-01-06T04:57:56;15;15;
80639;PMS5003;69992;60.170;24.692;2024-01-06T05:00:22;21;21;
80639;PMS5003;69992;60.170;24.692;2024-01-06T05:02:47;30;28;
80639;PMS5003;69992;60.170;24.692;2024-01-06T05:05:13;33;31;
80639;PMS5003;69992;60.170;24.692;2024-01-06T05:07:38;27;25;
80639;PMS5003;69992;60.170;24.692;2024-01-06T05:10:04;36;33;
80639;PMS5003;69992;60.170;24.692;2024-01-06T05:12:29;6;4;
80639;PMS5003;69992;60.170;24.692;2024-01-06T05:14:55;9;6;
80639;PMS5003;69992;60.170;24.692;2024-01-06T05:17:20;3;3;
80639;PMS5003;69992;60.170;24.692;2024-01-06T05:19:46;13;12;
80639;PMS5003;69992;60.170;24.692;2024-01-06T05:22:11;4;4;
80639;PMS5003;69992;60.170;24.692;2024-01-06T05:24:37;6;6;
80639;PMS5003;69992;60.170;24.692;2024-01-06T05:27:02;6;6;
80639;PMS5003;69992;60.170;24.692;2024-01-06T05:29:27;6;4;
80639;PMS5003;69992;60.170;24.692;2024-01-06T05:31:53;12;12;
80639;PMS5003;69992;60.170;24.692;2024-01-06T05:34:19;39;37;
80639;PMS5003;69992;60.170;24.692;2024-01-06T05:36:44;27;27;
80639;PMS5003;69992;60.170;24.692;2024-01-06T05:39:10;27;27;
80639;PMS5003;69992;60.170;24.692;2024-01-06T05:41:38;27;25;
80639;PMS5003;69992;60.170;24.692;2024-01-06T05:44:01;25;25;
80639;PMS5003;69992;60.170;24.692;2024-01-06T05:46:26;10;7;
80639;PMS5003;69992;60.170;24.692;2024-01-06T05:48:51;15;15;
80639;PMS5003;69992;60.170;24.692;2024-01-06T05:51:17;16;16;
80639;PMS5003;69992;60.170;24.692;2024-01-06T05:53:42;15;13;
80639;PMS5003;69992;60.170;24.692;2024-01-06T05:56:08;19;19;
80639;PMS5003;69992;60.170;24.692;2024-01-06T05:58:33;21;19;
80639;PMS5003;69992;60.170;24.692;2024-01-06T06:00:59;16;15;
80639;PMS5003;69992;60.170;24.692;2024-01-06T06:03:24;16;16;
80639;PMS5003;69992;60.170;24.692;2024-01-06T06:05:50;15;15;
80639;PMS5003;69992;60.170;24.692;2024-01-06T06:08:15;18;16;
80639;PMS5003;69992;60.170;24.692;2024-01-06T06:10:40;15;13;
80639;PMS5003;69992;60.170;24.692;2024-01-06T06:13:06;16;13;
80639;PMS5003;69992;60.170;24.692;2024-01-06T06:15:31;15;13;
80639;PMS5003;69992;60.170;24.692;2024-01-06T06:17:57;18;18;
80639;PMS5003;69992;60.170;24.692;2024-01-06T06:20:22;18;18;
80639;PMS5003;69992;60.170;24.692;2024-01-06T06:22:48;27;27;
80639;PMS5003;69992;60.170;24.692;2024-01-06T06:25:13;16;16;
80639;PMS5003;69992;60.170;24.692;2024-01-06T06:27:39;7;7;
80639;PMS5003;69992;60.170;24.692;2024-01-06T06:30:05;9;6;
80639;PMS5003;69992;60.170;24.692;2024-01-06T06:32:29;6;6;
80639;PMS5003;69992;60.170;24.692;2024-01-06T06:34:55;4;3;
80639;PMS5003;69992;60.170;24.692;2024-01-06T06:37:20;6;6;
80639;PMS5003;69992;60.170;24.692;2024-01-06T06:39:46;4;4;
80639;PMS5003;69992;60.170;24.692;2024-01-06T06:42:11;4;4;
80639;PMS5003;69992;60.170;24.692;2024-01-06T06:44:36;3;3;
80639;PMS5003;69992;60.170;24.692;2024-01-06T06:47:05;4;3;
80639;PMS5003;69992;60.170;24.692;2024-01-06T06:49:27;4;4;
80639;PMS5003;69992;60.170;24.692;2024-01-06T06:51:53;4;4;
80639;PMS5003;69992;60.170;24.692;2024-01-06T06:54:18;7;4;
80639;PMS5003;69992;60.170;24.692;2024-01-06T06:56:44;6;4;
80639;PMS5003;69992;60.170;24.692;2024-01-06T06:59:09;9;7;
80639;PMS5003;69992;60.170;24.692;2024-01-06T07:01:34;10;10;
80639;PMS5003;69992;60.170;24.692;2024-01-06T07:04:00;4;3;
80639;PMS5003;69992;60.170;24.692;2024-01-06T07:06:25;6;4;
80639;PMS5003;69992;60.170;24.692;2024-01-06T07:08:51;9;7;
80639;PMS5003;69992;60.170;24.692;2024-01-06T07:11:19;9;7;
80639;PMS5003;69992;60.170;24.692;2024-01-06T07:13:41;6;4;
80639;PMS5003;69992;60.170;24.692;2024-01-06T07:16:07;9;7;
80639;PMS5003;69992;60.170;24.692;2024-01-06T07:18:32;7;4;
80639;PMS5003;69992;60.170;24.692;2024-01-06T07:20:58;10;9;
80639;PMS5003;69992;60.170;24.692;2024-01-06T07:23:23;6;6;
80639;PMS5003;69992;60.170;24.692;2024-01-06T07:25:48;4;4;
80639;PMS5003;69992;60.170;24.692;2024-01-06T07:28:14;9;7;
80639;PMS5003;69992;60.170;24.692;2024-01-06T07:30:39;6;6;
80639;PMS5003;69992;60.170;24.692;2024-01-06T07:33:05;6;4;
80639;PMS5003;69992;60.170;24.692;2024-01-06T07:35:30;6;6;
80639;PMS5003;69992;60.170;24.692;2024-01-06T07:37:56;7;6;
80639;PMS5003;69992;60.170;24.692;2024-01-06T07:40:21;9;6;
80639;PMS5003;69992;60.170;24.692;2024-01-06T07:42:46;10;6;
80639;PMS5003;69992;60.170;24.692;2024-01-06T07:45:12;10;7;
80639;PMS5003;69992;60.170;24.692;2024-01-06T07:47:37;7;6;
80639;PMS5003;69992;60.170;24.692;2024-01-06T07:50:03;9;7;
80639;PMS5003;69992;60.170;24.692;2024-01-06T07:52:28;10;7;
80639;PMS5003;69992;60.170;24.692;2024-01-06T07:54:53;7;6;
80639;PMS5003;69992;60.170;24.692;2024-01-06T07:57:18;9;7;
80639;PMS5003;69992;60.170;24.692;2024-01-06T07:59:45;10;9;
80639;PMS5003;69992;60.170;24.692;2024-01-06T08:02:10;7;6;
80639;PMS5003;69992;60.170;24.692;2024-01-06T08:04:35;9;9;
80639;PMS5003;69992;60.170;24.692;2024-01-06T08:07:00;12;7;
80639;PMS5003;69992;60.170;24.692;2024-01-06T08:09:26;12;12;
80639;PMS5003;69992;60.170;24.692;2024-01-06T08:11:51;9;7;
80639;PMS5003;69992;60.170;24.692;2024-01-06T08:14:20;9;7;
80639;PMS5003;69992;60.170;24.692;2024-01-06T08:16:42;6;6;
80639;PMS5003;69992;60.170;24.692;2024-01-06T08:19:07;7;6;
80639;PMS5003;69992;60.170;24.692;2024-01-06T08:21:32;12;9;
80639;PMS5003;69992;60.170;24.692;2024-01-06T08:23:58;13;12;
80639;PMS5003;69992;60.170;24.692;2024-01-06T08:26:26;12;9;
80639;PMS5003;69992;60.170;24.692;2024-01-06T08:28:49;7;7;
80639;PMS5003;69992;60.170;24.692;2024-01-06T08:31:14;9;7;
80639;PMS5003;69992;60.170;24.692;2024-01-06T08:33:39;6;6;
80639;PMS5003;69992;60.170;24.692;2024-01-06T08:36:05;7;6;
80639;PMS5003;69992;60.170;24.692;2024-01-06T08:38:30;7;7;
80639;PMS5003;69992;60.170;24.692;2024-01-06T08:40:56;4;4;
80639;PMS5003;69992;60.170;24.692;2024-01-06T08:43:21;7;6;
80639;PMS5003;69992;60.170;24.692;2024-01-06T08:45:46;4;4;
80639;PMS5003;69992;60.170;24.692;2024-01-06T08:48:12;9;7;
80639;PMS5003;69992;60.170;24.692;2024-01-06T08:50:37;10;9;
80639;PMS5003;69992;60.170;24.692;2024-01-06T08:53:03;10;7;
80639;PMS5003;69992;60.170;24.692;2024-01-06T08:55:28;10;10;
80639;PMS5003;69992;60.170;24.692;2024-01-06T08:57:53;9;9;
80639;PMS5003;69992;60.170;24.692;2024-01-06T09:00:19;10;10;
80639;PMS5003;69992;60.170;24.692;2024-01-06T09:02:44;10;9;
80639;PMS5003;69992;60.170;24.692;2024-01-06T09:05:10;12;10;
80639;PMS5003;69992;60.170;24.692;2024-01-06T09:07:35;9;7;
80639;PMS5003;69992;60.170;24.692;2024-01-06T09:10:01;12;9;
80639;PMS5003;69992;60.170;24.692;2024-01-06T09:12:26;12;10;
80639;PMS5003;69992;60.170;24.692;2024-01-06T09:14:51;10;10;
80639;PMS5003;69992;60.170;24.692;2024-01-06T09:17:17;12;10;
80639;PMS5003;69992;60.170;24.692;2024-01-06T09:19:42;15;9;
80639;PMS5003;69992;60.170;24.692;2024-01-06T09:22:07;19;16;
80639;PMS5003;69992;60.170;24.692;2024-01-06T09:24:33;18;16;
80639;PMS5003;69992;60.170;24.692;2024-01-06T09:26:58;13;13;
80639;PMS5003;69992;60.170;24.692;2024-01-06T09:29:24;12;10;
80639;PMS5003;69992;60.170;24.692;2024-01-06T09:31:49;10;10;
80639;PMS5003;69992;60.170;24.692;2024-01-06T09:34:14;13;10;
80639;PMS5003;69992;60.170;24.692;2024-01-06T09:36:40;13;10;
80639;PMS5003;69992;60.170;24.692;2024-01-06T09:39:05;15;13;
80639;PMS5003;69992;60.170;24.692;2024-01-06T09:41:31;15;15;
80639;PMS5003;69992;60.170;24.692;2024-01-06T09:43:56;18;12;
80639;PMS5003;69992;60.170;24.692;2024-01-06T09:46:23;10;9;
80639;PMS5003;69992;60.170;24.692;2024-01-06T09:48:50;16;12;
80639;PMS5003;69992;60.170;24.692;2024-01-06T09:51:12;9;9;
80639;PMS5003;69992;60.170;24.692;2024-01-06T09:53:40;9;9;
80639;PMS5003;69992;60.170;24.692;2024-01-06T09:56:03;7;7;
80639;PMS5003;69992;60.170;24.692;2024-01-06T09:58:28;10;7;
80639;PMS5003;69992;60.170;24.692;2024-01-06T10:00:53;16;12;
80639;PMS5003;69992;60.170;24.692;2024-01-06T10:03:18;10;9;
80639;PMS5003;69992;60.170;24.692;2024-01-06T10:05:44;7;6;
80639;PMS5003;69992;60.170;24.692;2024-01-06T10:08:09;7;7;
80639;PMS5003;69992;60.170;24.692;2024-01-06T10:10:35;10;7;
80639;PMS5003;69992;60.170;24.692;2024-01-06T10:13:00;10;9;
80639;PMS5003;69992;60.170;24.692;2024-01-06T10:15:25;10;7;
80639;PMS5003;69992;60.170;24.692;2024-01-06T10:17:53;9;9;
80639;PMS5003;69992;60.170;24.692;2024-01-06T10:20:16;9;6;
80639;PMS5003;69992;60.170;24.692;2024-01-06T10:22:42;12;10;
80639;PMS5003;69992;60.170;24.692;2024-01-06T10:25:11;10;7;
80639;PMS5003;69992;60.170;24.692;2024-01-06T10:27:33;10;9;
80639;PMS5003;69992;60.170;24.692;2024-01-06T10:29:59;15;10;
80639;PMS5003;69992;60.170;24.692;2024-01-06T10:32:23;10;10;
80639;PMS5003;69992;60.170;24.692;2024-01-06T10:34:48;7;7;
80639;PMS5003;69992;60.170;24.692;2024-01-06T10:37:17;7;6;
80639;PMS5003;69992;60.170;24.692;2024-01-06T10:39:39;10;6;
80639;PMS5003;69992;60.170;24.692;2024-01-06T10:42:05;9;7;
80639;PMS5003;69992;60.170;24.692;2024-01-06T10:44:30;7;7;
80639;PMS5003;69992;60.170;24.692;2024-01-06T10:46:55;9;7;
80639;PMS5003;69992;60.170;24.692;2024-01-06T10:49:21;7;7;
80639;PMS5003;69992;60.170;24.692;2024-01-06T10:51:46;15;12;
80639;PMS5003;69992;60.170;24.692;2024-01-06T10:54:12;9;7;
80639;PMS5003;69992;60.170;24.692;2024-01-06T10:56:37;7;7;
80639;PMS5003;69992;60.170;24.692;2024-01-06T10:59:03;9;7;
80639;PMS5003;69992;60.170;24.692;2024-01-06T11:01:28;7;7;
80639;PMS5003;69992;60.170;24.692;2024-01-06T11:03:54;9;9;
80639;PMS5003;69992;60.170;24.692;2024-01-06T11:06:19;9;9;
80639;PMS5003;69992;60.170;24.692;2024-01-06T11:08:46;7;6;
80639;PMS5003;69992;60.170;24.692;2024-01-06T11:11:09;7;7;
80639;PMS5003;69992;60.170;24.692;2024-01-06T11:13:35;10;9;
80639;PMS5003;69992;60.170;24.692;2024-01-06T11:16:00;10;9;
80639;PMS5003;69992;60.170;24.692;2024-01-06T11:18:32;9;9;
80639;PMS5003;69992;60.170;24.692;2024-01-06T11:23:17;12;10;
80639;PMS5003;69992;60.170;24.692;2024-01-06T11:25:41;13;9;
80639;PMS5003;69992;60.170;24.692;2024-01-06T11:28:07;13;10;
80639;PMS5003;69992;60.170;24.692;2024-01-06T11:30:32;10;7;
80639;PMS5003;69992;60.170;24.692;2024-01-06T11:32:58;7;7;
80639;PMS5003;69992;60.170;24.692;2024-01-06T11:35:27;9;7;
80639;PMS5003;69992;60.170;24.692;2024-01-06T11:37:51;7;7;
80639;PMS5003;69992;60.170;24.692;2024-01-06T11:40:15;10;9;
80639;PMS5003;69992;60.170;24.692;2024-01-06T11:42:40;10;10;
80639;PMS5003;69992;60.170;24.692;2024-01-06T11:45:05;10;9;
80639;PMS5003;69992;60.170;24.692;2024-01-06T11:47:31;13;10;
80639;PMS5003;69992;60.170;24.692;2024-01-06T11:49:56;10;10;
80639;PMS5003;69992;60.170;24.692;2024-01-06T11:52:21;21;12;
80639;PMS5003;69992;60.170;24.692;2024-01-06T11:54:46;12;10;
80639;PMS5003;69992;60.170;24.692;2024-01-06T11:57:12;13;10;
80639;PMS5003;69992;60.170;24.692;2024-01-06T11:59:40;15;10;
80639;PMS5003;69992;60.170;24.692;2024-01-06T12:02:02;16;16;
80639;PMS5003;69992;60.170;24.692;2024-01-06T12:04:27;18;15;
80639;PMS5003;69992;60.170;24.692;2024-01-06T12:06:53;10;10;
80639;PMS5003;69992;60.170;24.692;2024-01-06T12:09:18;13;12;
80639;PMS5003;69992;60.170;24.692;2024-01-06T12:11:47;13;13;
80639;PMS5003;69992;60.170;24.692;2024-01-06T12:14:09;13;12;
80639;PMS5003;69992;60.170;24.692;2024-01-06T12:16:34;10;10;
80639;PMS5003;69992;60.170;24.692;2024-01-06T12:18:59;16;10;
80639;PMS5003;69992;60.170;24.692;2024-01-06T12:21:24;13;9;
80639;PMS5003;69992;60.170;24.692;2024-01-06T12:23:50;16;10;
80639;PMS5003;69992;60.170;24.692;2024-01-06T12:26:16;15;13;
80639;PMS5003;69992;60.170;24.692;2024-01-06T12:28:43;15;13;
80639;PMS5003;69992;60.170;24.692;2024-01-06T12:31:08;12;10;
80639;PMS5003;69992;60.170;24.692;2024-01-06T12:33:32;16;10;
80639;PMS5003;69992;60.170;24.692;2024-01-06T12:35:57;12;12;
80639;PMS5003;69992;60.170;24.692;2024-01-06T12:38:22;10;10;
80639;PMS5003;69992;60.170;24.692;2024-01-06T12:40:48;15;10;
80639;PMS5003;69992;60.170;24.692;2024-01-06T12:43:13;12;10;
80639;PMS5003;69992;60.170;24.692;2024-01-06T12:45:39;12;12;
80639;PMS5003;69992;60.170;24.692;2024-01-06T12:48:04;15;12;
80639;PMS5003;69992;60.170;24.692;2024-01-06T12:50:29;10;9;
80639;PMS5003;69992;60.170;24.692;2024-01-06T12:52:55;9;9;
80639;PMS5003;69992;60.170;24.692;2024-01-06T12:55:20;9;9;
80639;PMS5003;69992;60.170;24.692;2024-01-06T12:57:45;13;10;
80639;PMS5003;69992;60.170;24.692;2024-01-06T13:00:11;6;6;
80639;PMS5003;69992;60.170;24.692;2024-01-06T13:02:36;12;7;
80639;PMS5003;69992;60.170;24.692;2024-01-06T13:05:02;15;13;
80639;PMS5003;69992;60.170;24.692;2024-01-06T13:07:27;24;24;
80639;PMS5003;69992;60.170;24.692;2024-01-06T13:09:52;22;18;
80639;PMS5003;69992;60.170;24.692;2024-01-06T13:12:17;12;12;
80639;PMS5003;69992;60.170;24.692;2024-01-06T13:14:43;12;12;
80639;PMS5003;69992;60.170;24.692;2024-01-06T13:17:08;9;7;
80639;PMS5003;69992;60.170;24.692;2024-01-06T13:19:34;9;7;
80639;PMS5003;69992;60.170;24.692;2024-01-06T13:21:59;12;10;
80639;PMS5003;69992;60.170;24.692;2024-01-06T13:24:25;9;9;
80639;PMS5003;69992;60.170;24.692;2024-01-06T13:26:50;12;7;
80639;PMS5003;69992;60.170;24.692;2024-01-06T13:29:15;9;7;
80639;PMS5003;69992;60.170;24.692;2024-01-06T13:31:40;13;12;
80639;PMS5003;69992;60.170;24.692;2024-01-06T13:34:06;9;7;
80639;PMS5003;69992;60.170;24.692;2024-01-06T13:36:31;18;16;
80639;PMS5003;69992;60.170;24.692;2024-01-06T13:38:56;18;15;
80639;PMS5003;69992;60.170;24.692;2024-01-06T13:41:22;25;18;
80639;PMS5003;69992;60.170;24.692;2024-01-06T13:43:47;15;15;
80639;PMS5003;69992;60.170;24.692;2024-01-06T13:46:12;52;39;
80639;PMS5003;69992;60.170;24.692;2024-01-06T13:48:38;31;22;
80639;PMS5003;69992;60.170;24.692;2024-01-06T13:51:04;18;16;
80639;PMS5003;69992;60.170;24.692;2024-01-06T13:53:29;10;9;
80639;PMS5003;69992;60.170;24.692;2024-01-06T13:55:55;13;12;
80639;PMS5003;69992;60.170;24.692;2024-01-06T13:58:20;15;12;
80639;PMS5003;69992;60.170;24.692;2024-01-06T14:00:45;13;10;
80639;PMS5003;69992;60.170;24.692;2024-01-06T14:03:11;12;9;
80639;PMS5003;69992;60.170;24.692;2024-01-06T14:05:36;16;12;
80639;PMS5003;69992;60.170;24.692;2024-01-06T14:08:01;10;9;
80639;PMS5003;69992;60.170;24.692;2024-01-06T14:10:27;12;12;
80639;PMS5003;69992;60.170;24.692;2024-01-06T14:12:53;16;12;
80639;PMS5003;69992;60.170;24.692;2024-01-06T14:15:17;18;13;
80639;PMS5003;69992;60.170;24.692;2024-01-06T14:17:43;10;9;
80639;PMS5003;69992;60.170;24.692;2024-01-06T14:20:08;12;9;
80639;PMS5003;69992;60.170;24.692;2024-01-06T14:22:34;15;12;
80639;PMS5003;69992;60.170;24.692;2024-01-06T14:24:59;12;10;
80639;PMS5003;69992;60.170;24.692;2024-01-06T14:27:24;12;10;
80639;PMS5003;69992;60.170;24.692;2024-01-06T14:29:53;12;12;
80639;PMS5003;69992;60.170;24.692;2024-01-06T14:32:15;16;15;
80639;PMS5003;69992;60.170;24.692;2024-01-06T14:34:41;10;10;
80639;PMS5003;69992;60.170;24.692;2024-01-06T14:37:06;12;10;
80639;PMS5003;69992;60.170;24.692;2024-01-06T14:39:32;15;13;
80639;PMS5003;69992;60.170;24.692;2024-01-06T14:41:57;13;12;
80639;PMS5003;69992;60.170;24.692;2024-01-06T14:44:23;18;13;
80639;PMS5003;69992;60.170;24.692;2024-01-06T14:46:48;12;10;
80639;PMS5003;69992;60.170;24.692;2024-01-06T14:49:14;15;13;
80639;PMS5003;69992;60.170;24.692;2024-01-06T14:51:39;18;15;
80639;PMS5003;69992;60.170;24.692;2024-01-06T14:54:04;18;15;
80639;PMS5003;69992;60.170;24.692;2024-01-06T14:56:30;18;13;
80639;PMS5003;69992;60.170;24.692;2024-01-06T14:58:55;15;13;
80639;PMS5003;69992;60.170;24.692;2024-01-06T15:01:21;16;15;
80639;PMS5003;69992;60.170;24.692;2024-01-06T15:03:46;18;18;
80639;PMS5003;69992;60.170;24.692;2024-01-06T15:06:12;18;13;
80639;PMS5003;69992;60.170;24.692;2024-01-06T15:08:37;18;15;
80639;PMS5003;69992;60.170;24.692;2024-01-06T15:11:02;24;12;
80639;PMS5003;69992;60.170;24.692;2024-01-06T15:13:28;10;9;
80639;PMS5003;69992;60.170;24.692;2024-01-06T15:15:53;15;13;
80639;PMS5003;69992;60.170;24.692;2024-01-06T15:18:19;13;12;
80639;PMS5003;69992;60.170;24.692;2024-01-06T15:20:44;18;16;
80639;PMS5003;69992;60.170;24.692;2024-01-06T15:23:09;19;15;
80639;PMS5003;69992;60.170;24.692;2024-01-06T15:25:35;18;16;
80639;PMS5003;69992;60.170;24.692;2024-01-06T15:28:00;15;15;
80639;PMS5003;69992;60.170;24.692;2024-01-06T15:30:26;16;13;
80639;PMS5003;69992;60.170;24.692;2024-01-06T15:32:51;18;15;
80639;PMS5003;69992;60.170;24.692;2024-01-06T15:35:17;16;13;
80639;PMS5003;69992;60.170;24.692;2024-01-06T15:37:42;12;10;
80639;PMS5003;69992;60.170;24.692;2024-01-06T15:40:08;15;13;
80639;PMS5003;69992;60.170;24.692;2024-01-06T15:42:33;16;15;
80639;PMS5003;69992;60.170;24.692;2024-01-06T15:44:58;13;13;
80639;PMS5003;69992;60.170;24.692;2024-01-06T15:47:23;12;10;
80639;PMS5003;69992;60.170;24.692;2024-01-06T15:49:49;15;12;
80639;PMS5003;69992;60.170;24.692;2024-01-06T15:52:14;15;12;
80639;PMS5003;69992;60.170;24.692;2024-01-06T15:54:43;16;15;
80639;PMS5003;69992;60.170;24.692;2024-01-06T15:57:05;15;13;
80639;PMS5003;69992;60.170;24.692;2024-01-06T15:59:30;15;13;
80639;PMS5003;69992;60.170;24.692;2024-01-06T16:01:56;16;13;
80639;PMS5003;69992;60.170;24.692;2024-01-06T16:04:21;15;15;
80639;PMS5003;69992;60.170;24.692;2024-01-06T16:06:50;18;15;
80639;PMS5003;69992;60.170;24.692;2024-01-06T16:09:12;16;15;